createdAt,value
2022-09-11T00:03:24.321Z,94792
2022-09-11T00:06:49.514Z,94783
2022-09-11T00:10:14.741Z,94782
2022-09-11T00:13:40.016Z,94780
2022-09-11T00:17:05.119Z,94781
2022-09-11T00:20:30.339Z,94774
2022-09-11T00:23:55.540Z,94780
2022-09-11T00:27:20.763Z,94777
2022-09-11T00:30:45.959Z,94779
2022-09-11T00:34:11.149Z,94777
2022-09-11T00:37:36.358Z,94777
2022-09-11T00:41:01.637Z,94779
2022-09-11T00:44:26.859Z,94781
2022-09-11T00:47:52.124Z,94779
2022-09-11T00:51:17.345Z,94777
2022-09-11T00:54:42.573Z,94779
2022-09-11T00:58:07.766Z,94780
2022-09-11T01:01:33.025Z,94781
2022-09-11T01:04:58.222Z,94777
2022-09-11T01:08:23.419Z,94781
2022-09-11T01:11:48.663Z,94780
2022-09-11T01:15:13.858Z,94779
2022-09-11T01:18:39.032Z,94776
2022-09-11T01:22:04.231Z,94780
2022-09-11T01:25:29.441Z,94779
2022-09-11T01:28:54.651Z,94781
2022-09-11T01:32:19.830Z,94776
2022-09-11T01:35:45.041Z,94779
2022-09-11T01:39:10.286Z,94781
2022-09-11T01:42:35.455Z,94789
2022-09-11T01:46:00.695Z,94784
2022-09-11T01:49:25.896Z,94782
2022-09-11T01:52:51.129Z,94783
2022-09-11T01:56:16.351Z,94785
2022-09-11T01:59:41.521Z,94785
2022-09-11T02:03:06.754Z,94782
2022-09-11T02:06:31.948Z,94778
2022-09-11T02:09:57.171Z,94785
2022-09-11T02:13:24.986Z,94788
2022-09-11T02:16:47.575Z,94785
2022-09-11T02:20:12.778Z,94787
2022-09-11T02:23:37.993Z,94786
2022-09-11T02:27:03.167Z,94790
2022-09-11T02:30:28.387Z,94793
2022-09-11T02:33:53.580Z,94792
2022-09-11T02:37:18.782Z,94793
2022-09-11T02:40:44.041Z,94795
2022-09-11T02:44:09.247Z,94792
2022-09-11T02:47:34.453Z,94791
2022-09-11T02:50:59.674Z,94794
2022-09-11T02:54:24.896Z,94811
2022-09-11T02:57:50.125Z,94806
2022-09-11T03:01:15.320Z,94809
2022-09-11T03:04:40.546Z,94818
2022-09-11T03:08:05.691Z,94816
2022-09-11T03:11:30.951Z,94818
2022-09-11T03:14:56.122Z,94818
2022-09-11T03:18:21.369Z,94818
2022-09-11T03:21:46.562Z,94822
2022-09-11T03:25:11.714Z,94824
2022-09-11T03:28:36.922Z,94826
2022-09-11T03:32:02.158Z,94826
2022-09-11T03:35:27.342Z,94832
2022-09-11T03:38:52.621Z,94831
2022-09-11T03:42:17.769Z,94835
2022-09-11T03:45:42.962Z,94833
2022-09-11T03:49:08.148Z,94833
2022-09-11T03:52:33.389Z,94839
2022-09-11T03:55:58.609Z,94834
2022-09-11T03:59:23.804Z,94839
2022-09-11T04:02:49.003Z,94851
2022-09-11T04:06:14.229Z,94855
2022-09-11T04:09:39.419Z,94853
2022-09-11T04:13:04.597Z,94852
2022-09-11T04:16:29.820Z,94857
2022-09-11T04:19:55.018Z,94861
2022-09-11T04:23:20.217Z,94861
2022-09-11T04:26:45.435Z,94863
2022-09-11T04:30:10.658Z,94864
2022-09-11T04:33:35.820Z,94862
2022-09-11T04:37:01.054Z,94875
2022-09-11T04:40:26.272Z,94871
2022-09-11T04:43:51.471Z,94870
2022-09-11T04:47:16.675Z,94871
2022-09-11T04:50:41.881Z,94871
2022-09-11T04:54:07.076Z,94873
2022-09-11T04:57:32.324Z,94872
2022-09-11T05:00:57.592Z,94875
2022-09-11T05:04:25.908Z,94880
2022-09-11T05:07:48.013Z,94877
2022-09-11T05:11:13.212Z,94883
2022-09-11T05:14:38.406Z,94888
2022-09-11T05:18:03.611Z,94891
2022-09-11T05:21:28.849Z,94895
2022-09-11T05:24:54.022Z,94897
2022-09-11T05:28:19.226Z,94894
2022-09-11T05:31:44.500Z,94900
2022-09-11T05:35:09.689Z,94907
2022-09-11T05:38:34.956Z,94906
2022-09-11T05:42:00.109Z,94912
2022-09-11T05:45:25.427Z,94919
2022-09-11T05:48:50.582Z,94920
2022-09-11T05:52:15.809Z,94924
2022-09-11T05:55:41.022Z,94929
2022-09-11T05:59:06.206Z,94930
2022-09-11T06:02:31.401Z,94935
2022-09-11T06:05:56.576Z,94949
2022-09-11T06:09:21.825Z,94954
2022-09-11T06:12:47.082Z,94958
2022-09-11T06:16:15.918Z,94962
2022-09-11T06:19:37.479Z,94967
2022-09-11T06:23:06.125Z,94973
2022-09-11T06:26:27.911Z,94970
2022-09-11T06:29:53.178Z,94973
2022-09-11T06:33:18.360Z,94973
2022-09-11T06:36:43.613Z,94980
2022-09-11T06:40:08.902Z,94978
2022-09-11T06:43:34.087Z,94976
2022-09-11T06:46:59.229Z,94978
2022-09-11T06:50:24.395Z,94983
2022-09-11T06:53:49.576Z,94984
2022-09-11T06:57:14.755Z,94983
2022-09-11T07:00:39.960Z,94987
2022-09-11T07:04:05.153Z,94987
2022-09-11T07:07:30.302Z,94987
2022-09-11T07:10:55.462Z,94996
2022-09-11T07:14:20.646Z,94994
2022-09-11T07:17:45.831Z,94997
2022-09-11T07:21:11.028Z,94998
2022-09-11T07:24:36.171Z,94998
2022-09-11T07:28:01.347Z,95003
2022-09-11T07:31:26.557Z,95002
2022-09-11T07:34:51.704Z,95006
2022-09-11T07:38:16.900Z,95009
2022-09-11T07:41:42.076Z,95011
2022-09-11T07:45:07.234Z,95018
2022-09-11T07:48:32.427Z,95022
2022-09-11T07:51:57.595Z,95028
2022-09-11T07:55:22.797Z,95024
2022-09-11T07:58:47.957Z,95025
2022-09-11T08:02:13.228Z,95029
2022-09-11T08:05:38.356Z,95035
2022-09-11T08:09:03.510Z,95038
2022-09-11T08:12:28.702Z,95042
2022-09-11T08:15:53.882Z,95047
2022-09-11T08:19:19.070Z,95053
2022-09-11T08:22:44.250Z,95056
2022-09-11T08:26:09.478Z,95063
2022-09-11T08:29:34.673Z,95069
2022-09-11T08:32:59.841Z,95069
2022-09-11T08:36:25.004Z,95082
2022-09-11T08:39:50.228Z,95085
2022-09-11T08:43:15.356Z,95085
2022-09-11T08:46:40.568Z,95085
2022-09-11T08:50:05.726Z,95088
2022-09-11T08:53:30.889Z,95095
2022-09-11T08:56:56.067Z,95097
2022-09-11T09:00:21.241Z,95099
2022-09-11T09:03:46.436Z,95105
2022-09-11T09:07:11.600Z,95106
2022-09-11T09:10:36.807Z,95110
2022-09-11T09:14:02.000Z,95117
2022-09-11T09:17:27.204Z,95113
2022-09-11T09:20:52.411Z,95114
2022-09-11T09:24:17.574Z,95115
2022-09-11T09:27:42.763Z,95118
2022-09-11T09:31:07.974Z,95116
2022-09-11T09:34:33.119Z,95115
2022-09-11T09:37:58.314Z,95116
2022-09-11T09:41:23.482Z,95119
2022-09-11T09:44:48.655Z,95116
2022-09-11T09:48:13.822Z,95118
2022-09-11T09:51:38.985Z,95127
2022-09-11T09:55:04.189Z,95127
2022-09-11T09:58:29.327Z,95131
2022-09-11T10:01:54.614Z,95130
2022-09-11T10:05:19.726Z,95134
2022-09-11T10:08:44.903Z,95138
2022-09-11T10:12:10.116Z,95133
2022-09-11T10:15:35.289Z,95138
2022-09-11T10:19:00.437Z,95140
2022-09-11T10:22:25.585Z,95140
2022-09-11T10:25:50.776Z,95143
2022-09-11T10:29:15.954Z,95143
2022-09-11T10:32:41.125Z,95142
2022-09-11T10:36:06.306Z,95144
2022-09-11T10:39:31.471Z,95144
2022-09-11T10:42:56.652Z,95142
2022-09-11T10:46:21.863Z,95152
2022-09-11T10:49:47.034Z,95149
2022-09-11T10:53:12.197Z,95148
2022-09-11T10:56:37.377Z,95133
2022-09-11T11:00:03.438Z,95137
2022-09-11T11:03:28.652Z,95138
2022-09-11T11:06:53.820Z,95143
2022-09-11T11:10:18.994Z,95146
2022-09-11T11:13:44.189Z,95148
2022-09-11T11:17:09.358Z,95147
2022-09-11T11:20:34.658Z,95148
2022-09-11T11:23:59.803Z,95151
2022-09-11T11:27:25.011Z,95159
2022-09-11T11:30:50.201Z,95155
2022-09-11T11:34:15.488Z,95154
2022-09-11T11:37:40.674Z,95156
2022-09-11T11:41:05.853Z,95153
2022-09-11T11:44:31.009Z,95159
2022-09-11T11:47:56.194Z,95161
2022-09-11T11:51:21.626Z,95164
2022-09-11T11:54:46.833Z,95176
2022-09-11T11:58:12.014Z,95174
2022-09-11T12:01:37.250Z,95175
2022-09-11T12:05:02.382Z,95169
2022-09-11T12:08:27.564Z,95174
2022-09-11T12:11:52.758Z,95172
2022-09-11T12:15:17.944Z,95171
2022-09-11T12:18:43.268Z,95175
2022-09-11T12:22:08.291Z,95184
2022-09-11T12:25:33.559Z,95187
2022-09-11T12:28:58.762Z,95190
2022-09-11T12:32:23.913Z,95188
2022-09-11T12:35:49.090Z,95193
2022-09-11T12:39:14.260Z,95190
2022-09-11T12:42:39.446Z,95189
2022-09-11T12:46:04.675Z,95198
2022-09-11T12:49:29.791Z,95195
2022-09-11T12:52:54.967Z,95191
2022-09-11T12:56:20.147Z,95200
2022-09-11T12:59:45.343Z,95192
2022-09-11T13:03:10.570Z,95190
2022-09-11T13:06:35.708Z,95194
2022-09-11T13:10:00.882Z,95193
2022-09-11T13:13:26.073Z,95190
2022-09-11T13:16:51.253Z,95193
2022-09-11T13:20:16.457Z,95179
2022-09-11T13:23:41.621Z,95176
2022-09-11T13:27:06.771Z,95174
2022-09-11T13:30:31.966Z,95169
2022-09-11T13:33:57.157Z,95173
2022-09-11T13:37:22.368Z,95172
2022-09-11T13:40:47.508Z,95185
2022-09-11T13:44:12.679Z,95183
2022-09-11T13:47:37.855Z,95190
2022-09-11T13:51:03.023Z,95181
2022-09-11T13:54:28.232Z,95193
2022-09-11T13:57:53.400Z,95190
2022-09-11T14:01:18.627Z,95192
2022-09-11T14:04:43.765Z,95194
2022-09-11T14:08:08.955Z,95189
2022-09-11T14:11:34.158Z,95188
2022-09-11T14:14:59.334Z,95188
2022-09-11T14:18:24.546Z,95187
2022-09-11T14:21:49.717Z,95184
2022-09-11T14:25:14.926Z,95184
2022-09-11T14:28:40.141Z,95188
2022-09-11T15:05:50.041Z,95164
2022-09-11T15:09:15.238Z,95184
2022-09-11T15:12:40.490Z,95184
2022-09-11T15:16:05.783Z,95188
2022-09-11T15:19:30.952Z,95190
2022-09-11T15:22:56.286Z,95188
2022-09-11T15:26:21.474Z,95181
2022-09-11T15:29:46.702Z,95185
2022-09-11T15:33:11.912Z,95185
2022-09-11T15:36:37.068Z,95187
2022-09-11T15:40:02.388Z,95183
2022-09-11T15:43:27.474Z,95180
2022-09-11T15:46:52.706Z,95186
2022-09-11T15:50:17.949Z,95182
2022-09-11T15:53:43.291Z,95176
2022-09-11T15:57:08.325Z,95179
2022-09-11T16:00:33.476Z,95181
2022-09-11T16:03:58.827Z,95185
2022-09-11T16:07:23.995Z,95193
2022-09-11T16:10:49.176Z,95196
2022-09-11T16:14:14.400Z,95194
2022-09-11T16:17:39.551Z,95190
2022-09-11T16:21:04.703Z,95189
2022-09-11T16:24:29.890Z,95188
2022-09-11T16:27:55.619Z,95192
2022-09-11T16:31:20.902Z,95194
2022-09-11T16:34:45.975Z,95193
2022-09-11T16:38:11.129Z,95191
2022-09-11T16:41:36.324Z,95188
2022-09-11T16:45:01.472Z,95186
2022-09-11T16:48:27.046Z,95182
2022-09-11T16:51:52.174Z,95183
2022-09-11T16:55:17.360Z,95175
2022-09-11T16:58:42.561Z,95180
2022-09-11T17:02:07.720Z,95177
2022-09-11T17:05:32.897Z,95182
2022-09-11T17:08:58.040Z,95176
2022-09-11T17:12:38.545Z,95176
2022-09-11T17:16:03.744Z,95174
2022-09-11T17:19:28.900Z,95177
2022-09-11T17:22:57.891Z,95177
2022-09-11T17:26:19.278Z,95180
2022-09-11T17:29:44.808Z,95182
2022-09-11T17:33:09.660Z,95186
2022-09-11T17:36:34.851Z,95185
2022-09-11T17:40:00.161Z,95189
2022-09-11T17:43:25.304Z,95190
2022-09-11T17:46:50.706Z,95186
2022-09-11T17:50:15.914Z,95193
2022-09-11T17:53:41.100Z,95196
2022-09-11T17:57:06.314Z,95197
2022-09-11T18:00:31.485Z,95198
2022-09-11T18:03:56.687Z,95200
2022-09-11T18:07:21.866Z,95199
2022-09-11T18:10:47.101Z,95200
2022-09-11T18:14:12.324Z,95203
2022-09-11T18:17:37.551Z,95206
2022-09-11T18:21:02.761Z,95207
2022-09-11T18:24:29.726Z,95203
2022-09-11T18:27:53.153Z,95199
2022-09-11T18:31:19.163Z,95205
2022-09-11T18:34:43.545Z,95205
2022-09-11T18:38:08.735Z,95213
2022-09-11T18:41:33.957Z,95220
2022-09-11T18:44:59.473Z,95216
2022-09-11T18:48:24.379Z,95218
2022-09-11T18:51:49.591Z,95217
2022-09-11T18:55:14.807Z,95218
2022-09-11T18:58:40.016Z,95220
2022-09-11T19:02:05.311Z,95217
2022-09-11T19:05:30.439Z,95221
2022-09-11T19:08:55.608Z,95223
2022-09-11T19:12:20.787Z,95230
2022-09-11T19:15:46.000Z,95237
2022-09-11T19:19:11.158Z,95231
2022-09-11T19:22:36.387Z,95234
2022-09-11T19:26:01.619Z,95234
2022-09-11T19:29:26.822Z,95232
2022-09-11T19:32:52.028Z,95233
2022-09-11T19:36:17.233Z,95238
2022-09-11T19:39:42.568Z,95232
2022-09-11T19:43:07.685Z,95238
2022-09-11T19:46:32.929Z,95241
2022-09-11T19:49:59.806Z,95242
2022-09-11T19:53:23.348Z,95245
2022-09-11T19:56:48.656Z,95242
2022-09-11T20:00:13.873Z,95243
2022-09-11T20:03:39.098Z,95240
2022-09-11T20:07:04.319Z,95240
2022-09-11T20:10:29.571Z,95241
2022-09-11T20:13:54.847Z,95241
2022-09-11T20:17:20.037Z,95239
2022-09-11T20:20:45.515Z,95239
2022-09-11T20:24:10.488Z,95242
2022-09-11T20:27:35.690Z,95243
2022-09-11T20:31:00.952Z,95245
2022-09-11T20:34:26.158Z,95245
2022-09-11T20:37:51.369Z,95248
2022-09-11T20:41:16.587Z,95247
2022-09-11T20:44:41.778Z,95251
2022-09-11T20:48:06.999Z,95249
2022-09-11T20:51:32.169Z,95253
2022-09-11T20:54:57.374Z,95245
2022-09-11T20:58:22.537Z,95244
2022-09-11T21:01:47.779Z,95244
2022-09-11T21:05:12.980Z,95239
2022-09-11T21:08:38.180Z,95231
2022-09-11T21:12:03.364Z,95234
2022-09-11T21:15:28.550Z,95230
2022-09-11T21:18:53.733Z,95233
2022-09-11T21:22:18.971Z,95236
2022-09-11T21:25:44.155Z,95238
2022-09-11T21:29:09.375Z,95236
2022-09-11T21:32:34.560Z,95238
2022-09-11T21:35:59.763Z,95235
2022-09-11T21:39:24.949Z,95238
2022-09-11T21:42:50.147Z,95235
2022-09-11T21:46:15.387Z,95235
2022-09-11T21:49:40.539Z,95236
2022-09-11T21:53:05.767Z,95230
2022-09-11T21:56:30.993Z,95232
2022-09-11T21:59:56.160Z,95234
2022-09-11T22:03:21.349Z,95231
2022-09-11T22:06:46.502Z,95228
2022-09-11T22:10:11.689Z,95228
2022-09-11T22:13:36.897Z,95228
2022-09-11T22:17:02.048Z,95233
2022-09-11T22:20:27.247Z,95233
2022-09-11T22:23:52.463Z,95240
2022-09-11T22:27:17.670Z,95238
2022-09-11T22:30:42.897Z,95244
2022-09-11T22:34:08.082Z,95241
2022-09-11T22:37:33.280Z,95238
2022-09-11T22:40:58.478Z,95235
2022-09-11T22:44:23.655Z,95234
2022-09-11T22:47:48.874Z,95239
2022-09-11T22:51:14.037Z,95237
2022-09-11T22:54:39.260Z,95234
2022-09-11T22:58:04.447Z,95231
2022-09-11T23:01:29.711Z,95227
2022-09-11T23:04:54.840Z,95230
2022-09-11T23:08:20.016Z,95232
2022-09-11T23:11:45.201Z,95224
2022-09-11T23:15:10.413Z,95226
2022-09-11T23:18:35.640Z,95220
2022-09-11T23:22:00.814Z,95225
2022-09-11T23:25:25.969Z,95223
2022-09-11T23:28:51.140Z,95222
2022-09-11T23:32:16.333Z,95219
2022-09-11T23:35:41.512Z,95220
2022-09-11T23:39:06.723Z,95223
2022-09-11T23:42:31.896Z,95217
2022-09-11T23:45:57.069Z,95213
2022-09-11T23:49:22.227Z,95213
2022-09-11T23:52:47.402Z,95210
2022-09-11T23:56:12.611Z,95209
2022-09-11T23:59:37.790Z,95204
